createdAt,value
2022-11-27T00:00:11.961Z,1025.55
2022-11-27T00:01:11.953Z,1025.59
2022-11-27T00:02:11.999Z,1025.60
2022-11-27T00:03:12.093Z,1025.56
2022-11-27T00:04:12.023Z,1025.59
2022-11-27T00:05:11.901Z,1025.54
2022-11-27T00:06:11.893Z,1025.61
2022-11-27T00:07:11.955Z,1025.64
2022-11-27T00:08:11.895Z,1025.61
2022-11-27T00:09:11.863Z,1025.62
2022-11-27T00:10:11.850Z,1025.64
2022-11-27T00:11:11.835Z,1025.62
2022-11-27T00:12:11.829Z,1025.68
2022-11-27T00:13:11.835Z,1025.56
2022-11-27T00:14:11.806Z,1025.58
2022-11-27T00:15:16.962Z,1025.55
2022-11-27T00:16:12.855Z,1025.56
2022-11-27T00:17:11.771Z,1025.56
2022-11-27T00:18:11.786Z,1025.50
2022-11-27T00:19:11.743Z,1025.56
2022-11-27T00:20:11.736Z,1025.55
2022-11-27T00:21:11.733Z,1025.49
2022-11-27T00:22:11.719Z,1025.53
2022-11-27T00:23:11.754Z,1025.48
2022-11-27T00:24:11.696Z,1025.48
2022-11-27T00:25:11.676Z,1025.51
2022-11-27T00:26:11.671Z,1025.47
2022-11-27T00:27:11.658Z,1025.48
2022-11-27T00:28:11.651Z,1025.48
2022-11-27T00:29:11.658Z,1025.46
2022-11-27T00:30:11.658Z,1025.50
2022-11-27T00:31:11.667Z,1025.51
2022-11-27T00:32:11.608Z,1025.48
2022-11-27T00:33:11.618Z,1025.46
2022-11-27T00:34:11.585Z,1025.51
2022-11-27T00:35:11.576Z,1025.50
2022-11-27T00:36:11.561Z,1025.46
2022-11-27T00:37:11.548Z,1025.51
2022-11-27T00:38:11.549Z,1025.47
2022-11-27T00:39:11.567Z,1025.49
2022-11-27T00:40:11.515Z,1025.47
2022-11-27T00:41:11.522Z,1025.47
2022-11-27T00:42:11.499Z,1025.51
2022-11-27T00:43:11.482Z,1025.51
2022-11-27T00:44:11.503Z,1025.51
2022-11-27T00:45:11.460Z,1025.50
2022-11-27T00:46:11.566Z,1025.48
2022-11-27T00:47:11.469Z,1025.51
2022-11-27T00:48:11.434Z,1025.48
2022-11-27T00:49:11.440Z,1025.47
2022-11-27T00:50:11.412Z,1025.48
2022-11-27T00:51:11.393Z,1025.47
2022-11-27T00:52:11.390Z,1025.42
2022-11-27T00:53:11.371Z,1025.38
2022-11-27T00:54:11.397Z,1025.37
2022-11-27T00:55:11.371Z,1025.36
2022-11-27T00:56:11.343Z,1025.37
2022-11-27T00:57:11.333Z,1025.41
2022-11-27T00:58:11.321Z,1025.37
2022-11-27T00:59:11.328Z,1025.43
2022-11-27T01:00:11.301Z,1025.40
2022-11-27T01:01:11.429Z,1025.38
2022-11-27T01:02:11.349Z,1025.44
2022-11-27T01:03:11.323Z,1025.39
2022-11-27T01:04:11.265Z,1025.45
2022-11-27T01:05:11.263Z,1025.38
2022-11-27T01:06:11.235Z,1025.43
2022-11-27T01:07:11.295Z,1025.37
2022-11-27T01:08:11.213Z,1025.34
2022-11-27T01:09:11.193Z,1025.39
2022-11-27T01:10:11.211Z,1025.38
2022-11-27T01:11:11.195Z,1025.40
2022-11-27T01:12:11.170Z,1025.42
2022-11-27T01:13:11.162Z,1025.46
2022-11-27T01:14:11.150Z,1025.41
2022-11-27T01:15:11.152Z,1025.40
2022-11-27T01:16:11.188Z,1025.39
2022-11-27T01:17:11.109Z,1025.40
2022-11-27T01:18:11.104Z,1025.35
2022-11-27T01:19:11.090Z,1025.35
2022-11-27T01:20:11.100Z,1025.31
2022-11-27T01:21:11.074Z,1025.32
2022-11-27T01:22:11.067Z,1025.22
2022-11-27T01:23:11.040Z,1025.29
2022-11-27T01:24:11.059Z,1025.24
2022-11-27T01:25:11.043Z,1025.18
2022-11-27T01:26:11.018Z,1025.26
2022-11-27T01:27:11.017Z,1025.29
2022-11-27T01:28:10.992Z,1025.22
2022-11-27T01:29:11.000Z,1025.18
2022-11-27T01:30:10.995Z,1025.22
2022-11-27T01:31:11.012Z,1025.23
2022-11-27T01:32:10.944Z,1025.23
2022-11-27T01:33:10.936Z,1025.25
2022-11-27T01:34:10.924Z,1025.23
2022-11-27T01:35:10.946Z,1025.28
2022-11-27T01:36:10.908Z,1025.29
2022-11-27T01:37:10.886Z,1025.27
2022-11-27T01:38:10.880Z,1025.24
2022-11-27T01:39:10.890Z,1025.23
2022-11-27T01:40:10.874Z,1025.21
2022-11-27T01:41:10.852Z,1025.17
2022-11-27T01:42:10.835Z,1025.15
2022-11-27T01:43:10.847Z,1025.20
2022-11-27T01:44:10.816Z,1025.12
2022-11-27T01:45:10.828Z,1025.06
2022-11-27T01:46:10.844Z,1025.05
2022-11-27T01:47:10.782Z,1025.07
2022-11-27T01:48:10.772Z,1025.04
2022-11-27T01:49:10.760Z,1024.98
2022-11-27T01:50:10.765Z,1024.93
2022-11-27T01:51:10.743Z,1024.92
2022-11-27T01:52:10.727Z,1024.92
2022-11-27T01:53:10.716Z,1024.90
2022-11-27T01:54:10.708Z,1024.85
2022-11-27T01:55:10.720Z,1024.91
2022-11-27T01:56:10.686Z,1024.81
2022-11-27T01:57:10.682Z,1024.81
2022-11-27T01:58:10.664Z,1024.85
2022-11-27T01:59:10.680Z,1024.79
2022-11-27T02:00:10.667Z,1024.76
2022-11-27T02:01:10.633Z,1024.74
2022-11-27T02:02:10.706Z,1024.70
2022-11-27T02:03:10.684Z,1024.74
2022-11-27T02:04:10.593Z,1024.77
2022-11-27T02:05:10.605Z,1024.71
2022-11-27T02:06:10.581Z,1024.73
2022-11-27T02:07:10.608Z,1024.77
2022-11-27T02:08:10.559Z,1024.79
2022-11-27T02:09:10.569Z,1024.76
2022-11-27T02:10:10.565Z,1024.72
2022-11-27T02:11:10.524Z,1024.72
2022-11-27T02:12:10.504Z,1024.66
2022-11-27T02:13:10.496Z,1024.70
2022-11-27T02:14:10.483Z,1024.65
2022-11-27T02:15:10.497Z,1024.64
2022-11-27T02:16:15.071Z,1024.64
2022-11-27T02:17:11.455Z,1024.60
2022-11-27T02:18:10.444Z,1024.58
2022-11-27T02:19:10.459Z,1024.60
2022-11-27T02:20:10.441Z,1024.59
2022-11-27T02:21:10.434Z,1024.58
2022-11-27T02:22:10.398Z,1024.62
2022-11-27T02:23:10.388Z,1024.56
2022-11-27T02:24:10.374Z,1024.58
2022-11-27T02:25:10.372Z,1024.62
2022-11-27T02:26:10.373Z,1024.59
2022-11-27T02:27:10.347Z,1024.57
2022-11-27T02:28:10.337Z,1024.62
2022-11-27T02:29:10.329Z,1024.59
2022-11-27T02:30:10.308Z,1024.61
2022-11-27T02:31:10.412Z,1024.58
2022-11-27T02:32:10.288Z,1024.58
2022-11-27T02:33:10.284Z,1024.62
2022-11-27T02:34:10.266Z,1024.62
2022-11-27T02:35:10.262Z,1024.63
2022-11-27T02:36:10.272Z,1024.62
2022-11-27T02:37:10.243Z,1024.64
2022-11-27T02:38:10.222Z,1024.56
2022-11-27T02:39:10.215Z,1024.60
2022-11-27T02:40:10.250Z,1024.55
2022-11-27T02:41:10.224Z,1024.58
2022-11-27T02:42:10.300Z,1024.58
2022-11-27T02:43:10.180Z,1024.55
2022-11-27T02:44:10.158Z,1024.58
2022-11-27T02:45:10.166Z,1024.58
2022-11-27T02:46:10.185Z,1024.59
2022-11-27T02:47:10.151Z,1024.49
2022-11-27T02:48:10.123Z,1024.59
2022-11-27T02:49:10.105Z,1024.58
2022-11-27T02:50:10.121Z,1024.59
2022-11-27T02:51:10.088Z,1024.59
2022-11-27T02:52:10.065Z,1024.56
2022-11-27T02:53:10.087Z,1024.55
2022-11-27T02:54:10.047Z,1024.59
2022-11-27T02:55:10.043Z,1024.64
2022-11-27T02:56:10.026Z,1024.62
2022-11-27T02:57:10.021Z,1024.68
2022-11-27T02:58:16.024Z,1024.61
2022-11-27T02:59:11.109Z,1024.63
2022-11-27T03:00:09.983Z,1024.63
2022-11-27T03:01:09.979Z,1024.66
2022-11-27T03:02:10.034Z,1024.63
2022-11-27T03:03:10.067Z,1024.63
2022-11-27T03:04:09.944Z,1024.63
2022-11-27T03:05:09.928Z,1024.66
2022-11-27T03:06:09.925Z,1024.57
2022-11-27T03:07:10.035Z,1024.59
2022-11-27T03:08:09.891Z,1024.59
2022-11-27T03:09:09.904Z,1024.64
2022-11-27T03:10:09.875Z,1024.57
2022-11-27T03:11:09.862Z,1024.60
2022-11-27T03:12:09.849Z,1024.52
2022-11-27T03:13:09.841Z,1024.58
2022-11-27T03:14:09.852Z,1024.52
2022-11-27T03:15:09.935Z,1024.58
2022-11-27T03:16:09.895Z,1024.51
2022-11-27T03:17:09.804Z,1024.54
2022-11-27T03:18:09.782Z,1024.56
2022-11-27T03:19:09.823Z,1024.56
2022-11-27T03:20:09.757Z,1024.54
2022-11-27T03:21:09.755Z,1024.60
2022-11-27T03:22:09.739Z,1024.54
2022-11-27T03:23:09.732Z,1024.53
2022-11-27T03:24:09.742Z,1024.57
2022-11-27T03:25:09.709Z,1024.54
2022-11-27T03:26:09.698Z,1024.55
2022-11-27T03:27:09.691Z,1024.62
2022-11-27T03:28:09.670Z,1024.55
2022-11-27T03:29:09.689Z,1024.56
2022-11-27T03:30:09.651Z,1024.62
2022-11-27T03:31:09.779Z,1024.63
2022-11-27T03:32:09.626Z,1024.60
2022-11-27T03:33:09.627Z,1024.61
2022-11-27T03:34:09.631Z,1024.67
2022-11-27T03:35:09.609Z,1024.62
2022-11-27T03:36:09.587Z,1024.60
2022-11-27T03:37:09.576Z,1024.64
2022-11-27T03:38:09.565Z,1024.61
2022-11-27T03:39:09.551Z,1024.65
2022-11-27T03:40:09.573Z,1024.64
2022-11-27T03:41:09.559Z,1024.63
2022-11-27T03:42:09.524Z,1024.67
2022-11-27T03:43:09.511Z,1024.66
2022-11-27T03:44:09.494Z,1024.64
2022-11-27T03:45:09.516Z,1024.66
2022-11-27T03:46:09.546Z,1024.61
2022-11-27T03:47:09.637Z,1024.58
2022-11-27T03:48:09.451Z,1024.63
2022-11-27T03:49:09.448Z,1024.57
2022-11-27T03:50:09.457Z,1024.57
2022-11-27T03:51:09.425Z,1024.60
2022-11-27T03:52:09.420Z,1024.59
2022-11-27T03:53:09.403Z,1024.56
2022-11-27T03:54:09.383Z,1024.62
2022-11-27T03:55:09.404Z,1024.61
2022-11-27T03:56:10.403Z,1024.64
2022-11-27T03:57:09.356Z,1024.58
2022-11-27T03:58:09.341Z,1024.52
2022-11-27T03:59:09.335Z,1024.50
2022-11-27T04:00:09.348Z,1024.52
2022-11-27T04:01:09.312Z,1024.54
2022-11-27T04:02:09.331Z,1024.55
2022-11-27T04:03:09.408Z,1024.50
2022-11-27T04:04:09.360Z,1024.51
2022-11-27T04:05:09.288Z,1024.55
2022-11-27T04:06:09.258Z,1024.52
2022-11-27T04:07:09.249Z,1024.52
2022-11-27T04:08:09.237Z,1024.50
2022-11-27T04:09:09.226Z,1024.52
2022-11-27T04:10:09.235Z,1024.49
2022-11-27T04:11:09.209Z,1024.50
2022-11-27T04:12:09.188Z,1024.51
2022-11-27T04:13:09.181Z,1024.57
2022-11-27T04:14:09.166Z,1024.52
2022-11-27T04:15:09.181Z,1024.50
2022-11-27T04:16:09.291Z,1024.40
2022-11-27T04:17:09.158Z,1024.42
2022-11-27T04:18:09.126Z,1024.40
2022-11-27T04:19:09.230Z,1024.49
2022-11-27T04:20:09.111Z,1024.48
2022-11-27T04:21:09.120Z,1024.51
2022-11-27T04:22:09.079Z,1024.54
2022-11-27T04:23:09.090Z,1024.56
2022-11-27T04:24:09.060Z,1024.57
2022-11-27T04:25:09.044Z,1024.55
2022-11-27T04:26:09.096Z,1024.54
2022-11-27T04:27:09.057Z,1024.50
2022-11-27T04:28:09.054Z,1024.57
2022-11-27T04:29:09.009Z,1024.53
2022-11-27T04:30:08.997Z,1024.52
2022-11-27T04:31:09.055Z,1024.51
2022-11-27T04:32:08.973Z,1024.50
2022-11-27T04:33:08.985Z,1024.57
2022-11-27T04:34:08.945Z,1024.50
2022-11-27T04:35:09.050Z,1024.50
2022-11-27T04:36:08.957Z,1024.49
2022-11-27T04:37:08.915Z,1024.46
2022-11-27T04:38:08.903Z,1024.47
2022-11-27T04:39:08.895Z,1024.45
2022-11-27T04:40:08.880Z,1024.46
2022-11-27T04:41:08.869Z,1024.50
2022-11-27T04:42:08.876Z,1024.49
2022-11-27T04:43:08.881Z,1024.52
2022-11-27T04:44:08.837Z,1024.54
2022-11-27T04:45:08.831Z,1024.49
2022-11-27T04:46:08.905Z,1024.54
2022-11-27T04:47:08.812Z,1024.54
2022-11-27T04:48:08.815Z,1024.49
2022-11-27T04:49:08.789Z,1024.47
2022-11-27T04:50:08.779Z,1024.51
2022-11-27T04:51:08.877Z,1024.55
2022-11-27T04:52:08.751Z,1024.53
2022-11-27T04:53:08.765Z,1024.54
2022-11-27T04:54:08.725Z,1024.55
2022-11-27T04:55:08.717Z,1024.50
2022-11-27T04:56:08.704Z,1024.47
2022-11-27T04:57:08.694Z,1024.48
2022-11-27T04:58:08.705Z,1024.45
2022-11-27T04:59:08.671Z,1024.47
2022-11-27T05:00:08.661Z,1024.51
2022-11-27T05:01:08.739Z,1024.57
2022-11-27T05:02:08.634Z,1024.50
2022-11-27T05:03:08.682Z,1024.54
2022-11-27T05:04:08.638Z,1024.58
2022-11-27T05:05:08.611Z,1024.57
2022-11-27T05:06:08.596Z,1024.50
2022-11-27T05:07:08.704Z,1024.54
2022-11-27T05:08:08.573Z,1024.57
2022-11-27T05:09:08.585Z,1024.55
2022-11-27T05:10:08.547Z,1024.51
2022-11-27T05:11:08.542Z,1024.54
2022-11-27T05:12:08.535Z,1024.56
2022-11-27T05:13:08.532Z,1024.57
2022-11-27T05:14:08.521Z,1024.56
2022-11-27T05:15:08.496Z,1024.50
2022-11-27T05:16:08.564Z,1024.56
2022-11-27T05:17:08.476Z,1024.52
2022-11-27T05:18:08.464Z,1024.52
2022-11-27T05:19:08.482Z,1024.55
2022-11-27T05:20:08.437Z,1024.57
2022-11-27T05:21:08.458Z,1024.63
2022-11-27T05:22:08.419Z,1024.56
2022-11-27T05:23:08.529Z,1024.51
2022-11-27T05:24:08.397Z,1024.59
2022-11-27T05:25:08.389Z,1024.57
2022-11-27T05:26:08.392Z,1024.60
2022-11-27T05:27:08.367Z,1024.63
2022-11-27T05:28:08.353Z,1024.66
2022-11-27T05:29:08.362Z,1024.61
2022-11-27T05:30:08.332Z,1024.58
2022-11-27T05:31:08.430Z,1024.60
2022-11-27T05:32:08.314Z,1024.61
2022-11-27T05:33:08.301Z,1024.58
2022-11-27T05:34:08.288Z,1024.57
2022-11-27T05:35:08.292Z,1024.54
2022-11-27T05:36:08.275Z,1024.52
2022-11-27T05:37:08.259Z,1024.56
2022-11-27T05:38:08.243Z,1024.48
2022-11-27T05:39:08.372Z,1024.51
2022-11-27T05:40:08.224Z,1024.54
2022-11-27T05:41:08.210Z,1024.51
2022-11-27T05:42:08.195Z,1024.51
2022-11-27T05:43:08.191Z,1024.59
2022-11-27T05:44:08.179Z,1024.63
2022-11-27T05:45:08.198Z,1024.61
2022-11-27T05:46:08.191Z,1024.55
2022-11-27T05:47:08.265Z,1024.58
2022-11-27T05:48:08.131Z,1024.58
2022-11-27T05:49:08.123Z,1024.59
2022-11-27T05:50:08.132Z,1024.52
2022-11-27T05:51:08.102Z,1024.57
2022-11-27T05:52:08.096Z,1024.58
2022-11-27T05:53:08.080Z,1024.50
2022-11-27T05:54:08.086Z,1024.51
2022-11-27T05:55:08.170Z,1024.49
2022-11-27T05:56:08.042Z,1024.54
2022-11-27T05:57:08.044Z,1024.46
2022-11-27T05:58:08.038Z,1024.48
2022-11-27T05:59:08.043Z,1024.51
2022-11-27T06:00:08.009Z,1024.51
2022-11-27T06:01:07.988Z,1024.55
2022-11-27T06:02:08.057Z,1024.45
2022-11-27T06:03:08.034Z,1024.43
2022-11-27T06:04:07.965Z,1024.41
2022-11-27T06:05:07.967Z,1024.45
2022-11-27T06:06:07.938Z,1024.44
2022-11-27T06:07:07.926Z,1024.39
2022-11-27T06:08:07.916Z,1024.37
2022-11-27T06:09:12.513Z,1024.35
2022-11-27T06:10:08.923Z,1024.30
2022-11-27T06:11:07.992Z,1024.31
2022-11-27T06:12:07.878Z,1024.30
2022-11-27T06:13:07.862Z,1024.29
2022-11-27T06:14:07.852Z,1024.21
2022-11-27T06:15:07.865Z,1024.21
2022-11-27T06:16:07.894Z,1024.28
2022-11-27T06:17:07.811Z,1024.25
2022-11-27T06:18:07.808Z,1024.25
2022-11-27T06:19:07.795Z,1024.23
2022-11-27T06:20:07.787Z,1024.21
2022-11-27T06:21:07.790Z,1024.21
2022-11-27T06:22:07.760Z,1024.13
2022-11-27T06:23:07.752Z,1024.17
2022-11-27T06:24:07.746Z,1024.11
2022-11-27T06:25:07.775Z,1024.16
2022-11-27T06:26:07.741Z,1024.17
2022-11-27T06:27:07.819Z,1024.14
2022-11-27T06:28:07.719Z,1024.14
2022-11-27T06:29:07.688Z,1024.19
2022-11-27T06:30:07.684Z,1024.17
2022-11-27T06:31:09.159Z,1024.09
2022-11-27T06:32:07.730Z,1024.17
2022-11-27T06:33:07.646Z,1024.14
2022-11-27T06:34:07.636Z,1024.17
2022-11-27T06:35:07.621Z,1024.15
2022-11-27T06:36:07.614Z,1024.17
2022-11-27T06:37:12.853Z,1024.20
2022-11-27T06:38:08.608Z,1024.19
2022-11-27T06:39:07.577Z,1024.18
2022-11-27T06:40:07.572Z,1024.21
2022-11-27T06:41:07.555Z,1024.24
2022-11-27T06:42:07.544Z,1024.21
2022-11-27T06:43:07.664Z,1024.22
2022-11-27T06:44:07.533Z,1024.17
2022-11-27T06:45:07.516Z,1024.20
2022-11-27T06:46:07.567Z,1024.15
2022-11-27T06:47:07.489Z,1024.25
2022-11-27T06:48:07.503Z,1024.18
2022-11-27T06:49:07.468Z,1024.22
2022-11-27T06:50:07.484Z,1024.24
2022-11-27T06:51:07.471Z,1024.27
2022-11-27T06:52:07.443Z,1024.26
2022-11-27T06:53:07.425Z,1024.24
2022-11-27T06:54:07.414Z,1024.21
2022-11-27T06:55:07.423Z,1024.27
2022-11-27T06:56:07.422Z,1024.25
2022-11-27T06:57:07.383Z,1024.26
2022-11-27T06:58:07.381Z,1024.29
2022-11-27T06:59:07.478Z,1024.30
2022-11-27T07:00:07.370Z,1024.29
2022-11-27T07:01:07.446Z,1024.27
2022-11-27T07:02:07.389Z,1024.27
2022-11-27T07:03:07.338Z,1024.29
2022-11-27T07:04:07.337Z,1024.27
2022-11-27T07:05:07.294Z,1024.25
2022-11-27T07:06:07.284Z,1024.24
2022-11-27T07:07:07.280Z,1024.32
2022-11-27T07:08:07.325Z,1024.30
2022-11-27T07:09:07.275Z,1024.33
2022-11-27T07:10:07.238Z,1024.30
2022-11-27T07:11:07.230Z,1024.23
2022-11-27T07:12:07.221Z,1024.24
2022-11-27T07:13:07.213Z,1024.18
2022-11-27T07:14:07.223Z,1024.17
2022-11-27T07:15:07.302Z,1024.11
2022-11-27T07:16:07.261Z,1024.07
2022-11-27T07:17:07.163Z,1024.03
2022-11-27T07:18:07.158Z,1024.04
2022-11-27T07:19:07.169Z,1024.02
2022-11-27T07:20:07.129Z,1024.04
2022-11-27T07:21:07.117Z,1024.02
2022-11-27T07:22:07.108Z,1023.98
2022-11-27T07:23:07.096Z,1023.95
2022-11-27T07:24:07.106Z,1024.01
2022-11-27T07:25:07.100Z,1024.02
2022-11-27T07:26:07.067Z,1023.99
2022-11-27T07:27:07.052Z,1024.02
2022-11-27T07:28:07.052Z,1024.01
2022-11-27T07:29:07.030Z,1024.03
2022-11-27T07:30:07.049Z,1023.95
2022-11-27T07:31:07.177Z,1024.01
2022-11-27T07:32:07.044Z,1024.00
2022-11-27T07:33:06.985Z,1023.99
2022-11-27T07:34:13.324Z,1023.99
2022-11-27T07:35:07.988Z,1024.02
2022-11-27T07:36:06.955Z,1024.02
2022-11-27T07:37:06.941Z,1024.01
2022-11-27T07:38:06.937Z,1023.98
2022-11-27T07:39:06.924Z,1023.96
2022-11-27T07:40:06.940Z,1023.93
2022-11-27T07:41:06.897Z,1023.99
2022-11-27T07:42:36.543Z,1023.93
2022-11-27T07:43:07.876Z,1023.94
2022-11-27T07:44:06.871Z,1023.92
2022-11-27T07:45:06.897Z,1023.85
2022-11-27T07:46:06.953Z,1023.93
2022-11-27T07:47:06.955Z,1023.89
2022-11-27T07:48:06.842Z,1023.92
2022-11-27T07:49:06.812Z,1023.87
2022-11-27T07:50:06.818Z,1023.88
2022-11-27T07:51:06.788Z,1023.85
2022-11-27T07:52:06.778Z,1023.80
2022-11-27T07:53:06.771Z,1023.82
2022-11-27T07:54:06.764Z,1023.82
2022-11-27T07:55:06.769Z,1023.80
2022-11-27T07:56:06.737Z,1023.80
2022-11-27T07:57:06.723Z,1023.74
2022-11-27T07:58:06.718Z,1023.81
2022-11-27T07:59:06.727Z,1023.83
2022-11-27T08:00:06.696Z,1023.80
2022-11-27T08:01:06.732Z,1023.76
2022-11-27T08:02:06.676Z,1023.82
2022-11-27T08:03:06.784Z,1023.88
2022-11-27T08:04:06.683Z,1023.85
2022-11-27T08:05:12.078Z,1023.90
2022-11-27T08:06:07.630Z,1023.87
2022-11-27T08:07:06.630Z,1023.83
2022-11-27T08:08:06.709Z,1023.81
2022-11-27T08:09:06.615Z,1023.84
2022-11-27T08:10:06.589Z,1023.84
2022-11-27T08:11:06.574Z,1023.87
2022-11-27T08:12:06.567Z,1023.88
2022-11-27T08:13:06.550Z,1023.92
2022-11-27T08:14:06.575Z,1023.89
2022-11-27T08:15:06.532Z,1023.85
2022-11-27T08:16:06.592Z,1023.82
2022-11-27T08:17:06.512Z,1023.78
2022-11-27T08:18:06.507Z,1023.79
2022-11-27T08:19:06.637Z,1023.75
2022-11-27T08:20:06.481Z,1023.73
2022-11-27T08:21:07.159Z,1023.72
2022-11-27T08:22:06.450Z,1023.67
2022-11-27T08:23:06.466Z,1023.73
2022-11-27T08:24:06.434Z,1023.66
2022-11-27T08:25:06.423Z,1023.69
2022-11-27T08:26:06.416Z,1023.71
2022-11-27T08:27:06.399Z,1023.73
2022-11-27T08:28:06.417Z,1023.72
2022-11-27T08:29:06.380Z,1023.78
2022-11-27T08:30:06.375Z,1023.75
2022-11-27T08:31:06.353Z,1023.81
2022-11-27T08:32:06.408Z,1023.72
2022-11-27T08:33:06.356Z,1023.80
2022-11-27T08:34:06.348Z,1023.77
2022-11-27T08:35:06.428Z,1023.80
2022-11-27T08:36:09.019Z,1023.76
2022-11-27T08:37:06.298Z,1023.76
2022-11-27T08:38:06.281Z,1023.74
2022-11-27T08:39:06.288Z,1023.74
2022-11-27T08:40:06.260Z,1023.73
2022-11-27T08:41:06.269Z,1023.66
2022-11-27T08:42:06.238Z,1023.70
2022-11-27T08:43:06.222Z,1023.70
2022-11-27T08:44:09.312Z,1023.67
2022-11-27T08:45:06.202Z,1023.71
2022-11-27T08:46:06.362Z,1023.70
2022-11-27T08:47:06.181Z,1023.74
2022-11-27T08:48:06.176Z,1023.82
2022-11-27T08:49:06.159Z,1023.76
2022-11-27T08:50:06.150Z,1023.80
2022-11-27T08:51:06.246Z,1023.77
2022-11-27T08:52:06.164Z,1023.80
2022-11-27T08:53:06.117Z,1023.79
2022-11-27T08:54:06.105Z,1023.77
2022-11-27T08:55:06.087Z,1023.77
2022-11-27T08:56:06.084Z,1023.81
2022-11-27T08:57:06.070Z,1023.70
2022-11-27T08:58:06.082Z,1023.70
2022-11-27T08:59:06.050Z,1023.71
2022-11-27T09:00:06.040Z,1023.72
2022-11-27T09:01:06.068Z,1023.81
2022-11-27T09:02:06.040Z,1023.73
2022-11-27T09:03:06.004Z,1023.72
2022-11-27T09:04:06.064Z,1023.73
2022-11-27T09:05:06.002Z,1023.72
2022-11-27T09:06:05.971Z,1023.70
2022-11-27T09:07:06.073Z,1023.69
2022-11-27T09:08:05.951Z,1023.76
2022-11-27T09:09:05.954Z,1023.74
2022-11-27T09:10:05.949Z,1023.80
2022-11-27T09:11:05.916Z,1023.75
2022-11-27T09:12:05.908Z,1023.72
2022-11-27T09:13:05.893Z,1023.82
2022-11-27T09:14:05.887Z,1023.74
2022-11-27T09:15:05.890Z,1023.74
2022-11-27T09:16:05.902Z,1023.77
2022-11-27T09:17:05.847Z,1023.73
2022-11-27T09:18:05.840Z,1023.76
2022-11-27T09:19:05.853Z,1023.77
2022-11-27T09:20:05.818Z,1023.75
2022-11-27T09:21:05.800Z,1023.72
2022-11-27T09:22:05.802Z,1023.68
2022-11-27T09:23:10.113Z,1023.70
2022-11-27T09:24:06.802Z,1023.64
2022-11-27T09:25:05.759Z,1023.67
2022-11-27T09:26:05.751Z,1023.66
2022-11-27T09:27:05.744Z,1023.69
2022-11-27T09:28:05.728Z,1023.66
2022-11-27T09:29:05.714Z,1023.66
2022-11-27T09:30:05.724Z,1023.70
2022-11-27T09:31:05.716Z,1023.65
2022-11-27T09:32:05.716Z,1023.60
2022-11-27T09:33:05.689Z,1023.62
2022-11-27T09:34:05.674Z,1023.54
2022-11-27T09:35:05.724Z,1023.61
2022-11-27T09:36:05.667Z,1023.61
2022-11-27T09:37:05.628Z,1023.52
2022-11-27T09:38:05.755Z,1023.51
2022-11-27T09:39:11.574Z,1023.50
2022-11-27T09:40:06.712Z,1023.50
2022-11-27T09:41:05.581Z,1023.49
2022-11-27T09:42:05.596Z,1023.52
2022-11-27T09:43:05.582Z,1023.56
2022-11-27T09:44:05.555Z,1023.51
2022-11-27T09:45:05.537Z,1023.51
2022-11-27T09:46:05.618Z,1023.48
2022-11-27T09:47:05.518Z,1023.46
2022-11-27T09:48:05.522Z,1023.43
2022-11-27T09:49:05.505Z,1023.38
2022-11-27T09:50:05.498Z,1023.39
2022-11-27T09:51:05.470Z,1023.33
2022-11-27T09:52:05.466Z,1023.36
2022-11-27T09:53:05.474Z,1023.39
2022-11-27T09:54:05.447Z,1023.34
2022-11-27T09:55:05.427Z,1023.34
2022-11-27T09:56:05.551Z,1023.32
2022-11-27T09:57:05.409Z,1023.31
2022-11-27T09:58:05.447Z,1023.32
2022-11-27T09:59:05.383Z,1023.31
2022-11-27T10:00:05.389Z,1023.24
2022-11-27T10:01:05.411Z,1023.26
2022-11-27T10:02:05.425Z,1023.32
2022-11-27T10:03:05.497Z,1023.25
2022-11-27T10:04:05.353Z,1023.32
2022-11-27T10:05:13.746Z,1023.33
2022-11-27T10:06:06.340Z,1023.29
2022-11-27T10:07:05.306Z,1023.25
2022-11-27T10:08:07.139Z,1023.25
2022-11-27T10:09:05.291Z,1023.28
2022-11-27T10:10:05.267Z,1023.27
2022-11-27T10:11:05.284Z,1023.22
2022-11-27T10:12:05.373Z,1023.22
2022-11-27T10:13:05.241Z,1023.30
2022-11-27T10:14:05.262Z,1023.31
2022-11-27T10:15:05.254Z,1023.31
2022-11-27T10:16:05.269Z,1023.25
2022-11-27T10:17:05.311Z,1023.24
2022-11-27T10:18:05.270Z,1023.32
2022-11-27T10:19:05.198Z,1023.30
2022-11-27T10:20:05.156Z,1023.24
2022-11-27T10:21:05.173Z,1023.25
2022-11-27T10:22:05.139Z,1023.26
2022-11-27T10:23:05.128Z,1023.26
2022-11-27T10:24:05.112Z,1023.22
2022-11-27T10:25:05.130Z,1023.27
2022-11-27T10:26:05.094Z,1023.22
2022-11-27T10:27:05.083Z,1023.25
2022-11-27T10:28:11.021Z,1023.24
2022-11-27T10:29:06.171Z,1023.26
2022-11-27T10:30:05.076Z,1023.24
2022-11-27T10:31:05.044Z,1023.20
2022-11-27T10:32:05.090Z,1023.24
2022-11-27T10:33:05.075Z,1023.21
2022-11-27T10:34:05.006Z,1023.13
2022-11-27T10:35:05.030Z,1023.18
2022-11-27T10:36:04.993Z,1023.15
2022-11-27T10:37:04.992Z,1023.13
2022-11-27T10:38:07.013Z,1023.13
2022-11-27T10:39:04.951Z,1023.15
2022-11-27T10:40:04.966Z,1023.15
2022-11-27T10:41:04.931Z,1023.16
2022-11-27T10:42:04.919Z,1023.20
2022-11-27T10:43:04.918Z,1023.19
2022-11-27T10:44:04.896Z,1023.16
2022-11-27T10:45:05.051Z,1023.18
2022-11-27T10:46:04.952Z,1023.10
2022-11-27T10:47:04.867Z,1023.07
2022-11-27T10:48:04.890Z,1023.02
2022-11-27T10:49:04.845Z,1023.08
2022-11-27T10:50:04.851Z,1023.11
2022-11-27T10:51:04.823Z,1023.11
2022-11-27T10:52:04.805Z,1023.14
2022-11-27T10:53:04.821Z,1023.03
2022-11-27T10:54:04.789Z,1023.08
2022-11-27T10:55:04.783Z,1023.07
2022-11-27T10:56:04.769Z,1023.02
2022-11-27T10:57:04.760Z,1023.03
2022-11-27T10:58:04.849Z,1023.00
2022-11-27T10:59:04.742Z,1023.05
2022-11-27T11:00:04.727Z,1023.00
2022-11-27T11:01:04.935Z,1023.01
2022-11-27T11:02:04.785Z,1022.94
2022-11-27T11:03:04.697Z,1022.95
2022-11-27T11:04:24.214Z,1022.95
2022-11-27T11:05:32.439Z,1022.98
2022-11-27T11:06:20.797Z,1022.94
2022-11-27T11:07:05.679Z,1022.99
2022-11-27T11:08:04.658Z,1022.96
2022-11-27T11:09:04.630Z,1022.90
2022-11-27T11:10:04.613Z,1022.88
2022-11-27T11:11:04.611Z,1022.78
2022-11-27T11:12:04.615Z,1022.80
2022-11-27T11:13:04.579Z,1022.77
2022-11-27T11:14:04.573Z,1022.75
2022-11-27T11:15:04.565Z,1022.70
2022-11-27T11:16:04.630Z,1022.77
2022-11-27T11:17:04.732Z,1022.82
2022-11-27T11:18:04.527Z,1022.79
2022-11-27T11:19:04.543Z,1022.82
2022-11-27T11:20:04.506Z,1022.85
2022-11-27T11:21:04.503Z,1022.90
2022-11-27T11:22:04.484Z,1022.94
2022-11-27T11:23:04.474Z,1022.90
2022-11-27T11:24:04.487Z,1022.94
2022-11-27T11:25:04.449Z,1022.91
2022-11-27T11:26:04.444Z,1022.87
2022-11-27T11:27:04.442Z,1022.88
2022-11-27T11:28:04.424Z,1022.83
2022-11-27T11:29:04.432Z,1022.82
2022-11-27T11:30:04.397Z,1022.76
2022-11-27T11:31:04.413Z,1022.86
2022-11-27T11:32:04.486Z,1022.81
2022-11-27T11:33:04.488Z,1022.86
2022-11-27T11:34:04.375Z,1022.92
2022-11-27T11:35:04.344Z,1022.86
2022-11-27T11:36:04.350Z,1022.85
2022-11-27T11:37:04.321Z,1022.80
2022-11-27T11:38:04.313Z,1022.79
2022-11-27T11:39:04.326Z,1022.80
2022-11-27T11:40:04.289Z,1022.83
2022-11-27T11:41:04.279Z,1022.83
2022-11-27T11:42:04.286Z,1022.78
2022-11-27T11:43:04.266Z,1022.77
2022-11-27T11:44:04.244Z,1022.82
2022-11-27T11:45:04.234Z,1022.80
2022-11-27T11:46:04.302Z,1022.76
2022-11-27T11:47:04.240Z,1022.79
2022-11-27T11:48:04.202Z,1022.74
2022-11-27T11:49:04.306Z,1022.74
2022-11-27T11:50:04.179Z,1022.80
2022-11-27T11:51:04.186Z,1022.77
2022-11-27T11:52:04.177Z,1022.74
2022-11-27T11:53:04.151Z,1022.75
2022-11-27T11:54:04.138Z,1022.79
2022-11-27T11:55:04.125Z,1022.74
2022-11-27T11:56:04.133Z,1022.81
2022-11-27T11:57:04.107Z,1022.79
2022-11-27T11:58:04.090Z,1022.81
2022-11-27T11:59:04.080Z,1022.78
2022-11-27T12:00:04.074Z,1022.79
2022-11-27T12:01:25.833Z,1022.73
2022-11-27T12:02:05.156Z,1022.71
2022-11-27T12:03:04.063Z,1022.71
2022-11-27T12:04:04.116Z,1022.67
2022-11-27T12:05:04.130Z,1022.70